Excello, MO (65247)

6:54 PM CST on March 02, 2015 (GMT -0600)
At Moberly | Change Station
CLOSE
Current Station
Personal Weather Station
Location: Moberly, MO
Elevation: 853 ft
Nearby Weather Stations
Active Advisory: Winter Weather Advisory

Elev 853 ft 39.46 °N, 92.40 °W | Updated 4 minutes ago

Clear
Clear
31.2 °F
Feels Like 23 °F
N
10.0
Wind Variable Wind from East
Gusts 15.0 mph

Today
High -- | Low -- °F
--% Chance of Precip.
Yesterday
High -- | Low -- °F
Precip. -- in
6:41 AM 6:02 PM
Waxing Gibbous, 93% visible
Pressure 30.30 in
Visibility 10.0 miles
Clouds Clear
Windchill 23 °F
Dew Point 21 °F
Humidity 65%
Rainfall 0.02 in
Snow Depth Not available.
UV 0 out of 12
Pollen 1.30 out of 12
Air Quality Not available.
Flu Activity Not available.
METAR KIRK 022355Z AUTO 11010KT 10SM CLR 00/M06 A3025 RMK AO2 SLP260 T00001056 10017 21017 58038

More Conditions Fewer Conditions

Pressure 30.30 in
Visibility 10.0 miles
Clouds Clear
Windchill 23 °F
Dew Point 21 °F
Humidity 65%
Rainfall 0.02 in
Snow Depth Not available.
UV 0 out of 12
Pollen 1.30 out of 12
Air Quality Not available.
Flu Activity Not available.
METAR KIRK 022355Z AUTO 11010KT 10SM CLR 00/M06 A3025 RMK AO2 SLP260 T00001056 10017 21017 58038

More Conditions Fewer Conditions

10-Day Weather Forecast

Almanac

Astronomy

Mar. 02, 2015 Rise Set
Actual Time
Civil Twilight
Nautical Twilight
Astronomical Twilight
Moon
Length of Visible Light
Length of Day
Tomorrow will be .
, % of the Moon is Illuminated

Today's Extremes

State Highs State Lows

Community

WunderPhotos

Upload Photos

1,802,009 photos uploaded!

WunderBlogs® & News

Nearby

Air Quality

  Air Quality AQ Index Pollutant
Not available.

Snow Depth

Station Depth Elevation

Earthquake Activity

City Distance Mag. Time & Date
Minimum magnitude displayed is 2.5.

Coastal Water Temperatures

Place Temperature

Nearby Weather Stations

Winter Weather Advisory
Statement as of 3:23 PM CST on March 02, 2015

... Winter Weather Advisory in effect from midnight tonight to
6 am CST Tuesday...

The National Weather Service in Kansas City/Pleasant Hill has
issued a Winter Weather Advisory for freezing rain...
which is in effect from midnight tonight to 6 am CST Tuesday.

* Timing... light freezing rain or freezing drizzle will spread over
the region late tonight and end around sunrise Tuesday morning.

* Ice accumulations... a light glazing of several hundredths of an
inch of ice is possible.

* Impacts (describe the primary impacts from the weather -
visibilities -roads -drifting -etc... )...

* other impacts... travel may be difficult late tonight and early
tomorrow morning before temperatures warm above freezing.


Precautionary/preparedness actions...

A Winter Weather Advisory means that periods of snow... sleet... or
freezing rain will cause travel difficulties. Be prepared for
slippery roads and limited visibilities... and use caution while
driving.